createdAt,value
2018-06-10T00:00:53.178Z,22.12
2018-06-10T00:03:22.210Z,22.15
2018-06-10T00:05:51.236Z,22.19
2018-06-10T00:08:20.265Z,22.23
2018-06-10T00:10:49.415Z,22.26
2018-06-10T00:13:18.368Z,22.29
2018-06-10T00:15:47.341Z,22.34
2018-06-10T00:18:16.465Z,22.37
2018-06-10T00:20:45.495Z,22.40
2018-06-10T00:23:14.561Z,22.42
2018-06-10T00:25:43.589Z,22.44
2018-06-10T00:28:12.773Z,22.45
2018-06-10T00:30:41.816Z,22.47
2018-06-10T00:33:10.901Z,22.47
2018-06-10T00:35:39.960Z,22.46
2018-06-10T00:38:08.938Z,22.49
2018-06-10T00:40:38.010Z,22.54
2018-06-10T00:43:07.049Z,22.53
2018-06-10T00:45:38.449Z,22.53
2018-06-10T00:48:07.475Z,22.59
2018-06-10T00:50:36.554Z,22.57
2018-06-10T00:53:05.643Z,22.59
2018-06-10T00:55:34.681Z,22.54
2018-06-10T00:58:03.736Z,22.58
2018-06-10T01:00:32.824Z,22.60
2018-06-10T01:03:01.850Z,22.60
2018-06-10T01:05:30.857Z,22.60
2018-06-10T01:07:59.949Z,22.63
2018-06-10T01:10:28.912Z,22.63
2018-06-10T01:12:58.841Z,22.63
2018-06-10T01:15:27.795Z,22.63
2018-06-10T01:17:56.802Z,22.61
2018-06-10T01:20:25.832Z,22.54
2018-06-10T01:22:54.801Z,22.52
2018-06-10T01:25:23.887Z,22.53
2018-06-10T01:27:52.857Z,22.52
2018-06-10T01:30:21.801Z,22.53
2018-06-10T01:32:50.809Z,22.54
2018-06-10T01:35:19.798Z,22.50
2018-06-10T01:37:48.805Z,22.49
2018-06-10T01:40:17.865Z,22.49
2018-06-10T01:42:46.885Z,22.44
2018-06-10T01:45:15.908Z,22.46
2018-06-10T01:47:44.887Z,22.42
2018-06-10T01:50:13.915Z,22.41
2018-06-10T01:52:42.925Z,22.39
2018-06-10T01:55:11.952Z,22.41
2018-06-10T01:57:41.049Z,22.40
2018-06-10T02:00:10.078Z,22.39
2018-06-10T02:02:39.203Z,22.38
2018-06-10T02:05:08.404Z,22.38
2018-06-10T02:07:37.436Z,22.37
2018-06-10T02:10:06.493Z,22.38
2018-06-10T02:12:35.538Z,22.37
2018-06-10T02:15:04.612Z,22.34
2018-06-10T02:17:33.581Z,22.34
2018-06-10T02:20:02.612Z,22.32
2018-06-10T02:22:31.582Z,22.31
2018-06-10T02:25:00.620Z,22.34
2018-06-10T02:27:29.652Z,22.35
2018-06-10T02:29:58.684Z,22.42
2018-06-10T02:32:27.648Z,22.41
2018-06-10T02:34:56.718Z,22.38
2018-06-10T02:37:25.764Z,22.38
2018-06-10T02:39:54.845Z,22.39
2018-06-10T02:42:23.853Z,22.41
2018-06-10T02:44:52.862Z,22.40
2018-06-10T02:47:22.320Z,22.39
2018-06-10T02:49:51.341Z,22.36
2018-06-10T02:52:20.411Z,22.26
2018-06-10T02:54:49.373Z,22.24
2018-06-10T02:57:18.328Z,22.24
2018-06-10T02:59:47.306Z,22.28
2018-06-10T03:02:16.269Z,22.31
2018-06-10T03:04:45.381Z,22.34
2018-06-10T03:07:14.340Z,22.36
2018-06-10T03:09:43.342Z,22.38
2018-06-10T03:12:12.374Z,22.37
2018-06-10T03:14:41.341Z,22.38
2018-06-10T03:17:10.402Z,22.40
2018-06-10T03:19:39.348Z,22.48
2018-06-10T03:22:08.405Z,22.52
2018-06-10T03:24:37.364Z,22.69
2018-06-10T03:27:06.454Z,22.94
2018-06-10T03:29:35.585Z,23.07
2018-06-10T03:32:04.589Z,23.15
2018-06-10T03:34:33.609Z,23.25
2018-06-10T03:37:02.573Z,23.31
2018-06-10T03:39:31.581Z,23.37
2018-06-10T03:42:00.664Z,23.43
2018-06-10T03:44:29.640Z,23.40
2018-06-10T03:46:58.667Z,23.37
2018-06-10T03:49:27.695Z,23.26
2018-06-10T03:51:56.801Z,23.23
2018-06-10T03:54:25.839Z,23.34
2018-06-10T03:56:54.831Z,23.21
2018-06-10T03:59:23.850Z,23.23
2018-06-10T04:01:52.880Z,23.34
2018-06-10T04:04:21.832Z,23.45
2018-06-10T04:06:50.824Z,24.06
2018-06-10T04:09:19.837Z,24.94
2018-06-10T04:11:48.811Z,25.85
2018-06-10T04:14:17.819Z,26.41
2018-06-10T04:16:46.901Z,27.23
2018-06-10T04:19:15.996Z,27.76
2018-06-10T04:21:45.002Z,28.41
2018-06-10T04:24:13.943Z,28.76
2018-06-10T04:26:42.924Z,29.13
2018-06-10T04:29:11.956Z,29.45
2018-06-10T04:31:41.002Z,29.82
2018-06-10T04:34:09.916Z,29.46
2018-06-10T04:36:38.833Z,28.56
2018-06-10T04:39:08.228Z,27.98
2018-06-10T04:41:37.261Z,27.45
2018-06-10T04:44:06.397Z,27.15
2018-06-10T04:46:35.328Z,27.17
2018-06-10T04:49:04.324Z,26.88
2018-06-10T04:51:33.239Z,26.45
2018-06-10T04:54:02.200Z,26.27
2018-06-10T04:56:31.226Z,26.01
2018-06-10T04:59:00.201Z,25.91
2018-06-10T05:01:29.188Z,25.80
2018-06-10T05:03:58.175Z,25.77
2018-06-10T05:06:27.198Z,25.53
2018-06-10T05:08:56.241Z,25.29
2018-06-10T05:11:25.143Z,25.07
2018-06-10T05:13:54.108Z,25.01
2018-06-10T05:16:23.073Z,25.25
2018-06-10T05:18:52.193Z,25.29
2018-06-10T05:21:21.256Z,25.31
2018-06-10T05:23:50.253Z,25.27
2018-06-10T05:26:19.184Z,25.36
2018-06-10T05:28:48.211Z,25.54
2018-06-10T05:31:17.299Z,25.61
2018-06-10T05:33:46.327Z,25.86
2018-06-10T05:36:15.396Z,26.07
2018-06-10T05:38:44.425Z,26.17
2018-06-10T05:41:13.440Z,26.82
2018-06-10T05:43:42.430Z,27.34
2018-06-10T05:46:11.456Z,27.95
2018-06-10T05:48:40.440Z,28.25
2018-06-10T05:51:09.432Z,28.61
2018-06-10T05:53:38.445Z,29.39
2018-06-10T05:56:07.456Z,29.60
2018-06-10T05:58:36.479Z,29.07
2018-06-10T06:01:05.493Z,28.53
2018-06-10T06:03:34.440Z,28.30
2018-06-10T06:06:03.394Z,28.30
2018-06-10T06:08:32.413Z,27.80
2018-06-10T06:11:01.399Z,27.53
2018-06-10T06:13:30.330Z,27.57
2018-06-10T06:15:59.345Z,27.68
2018-06-10T06:18:28.356Z,27.17
2018-06-10T06:20:57.401Z,26.99
2018-06-10T06:23:26.473Z,26.92
2018-06-10T06:25:55.424Z,26.89
2018-06-10T06:28:25.015Z,26.71
2018-06-10T06:30:54.021Z,26.80
2018-06-10T06:33:23.079Z,26.58
2018-06-10T06:35:52.104Z,26.58
2018-06-10T06:38:21.050Z,26.67
2018-06-10T06:40:50.143Z,26.64
2018-06-10T06:43:19.211Z,26.45
2018-06-10T06:45:48.445Z,26.47
2018-06-10T06:48:17.444Z,26.46
2018-06-10T06:50:46.513Z,26.45
2018-06-10T06:53:15.484Z,26.46
2018-06-10T06:55:44.441Z,26.47
2018-06-10T06:58:13.404Z,26.40
2018-06-10T07:00:42.630Z,26.39
2018-06-10T07:03:11.629Z,26.42
2018-06-10T07:05:40.580Z,26.23
2018-06-10T07:08:09.513Z,26.18
2018-06-10T07:10:38.534Z,26.09
2018-06-10T07:13:07.534Z,25.97
2018-06-10T07:15:36.585Z,25.94
2018-06-10T07:18:05.537Z,26.06
2018-06-10T07:20:34.497Z,26.19
2018-06-10T07:23:03.578Z,26.17
2018-06-10T07:25:32.640Z,26.21
2018-06-10T07:28:01.775Z,26.23
2018-06-10T07:30:30.831Z,26.26
2018-06-10T07:32:59.805Z,26.39
2018-06-10T07:35:28.852Z,26.51
2018-06-10T07:37:57.841Z,26.62
2018-06-10T07:40:26.885Z,26.71
2018-06-10T07:42:55.860Z,26.71
2018-06-10T07:45:24.889Z,26.82
2018-06-10T07:47:53.942Z,26.83
2018-06-10T07:50:23.129Z,26.96
2018-06-10T07:52:52.075Z,26.97
2018-06-10T07:55:21.010Z,27.28
2018-06-10T07:57:49.948Z,27.67
2018-06-10T08:00:18.893Z,27.90
2018-06-10T08:02:47.883Z,28.05
2018-06-10T08:05:16.880Z,28.14
2018-06-10T08:07:45.937Z,28.51
2018-06-10T08:10:15.013Z,28.81
2018-06-10T08:12:43.985Z,29.02
2018-06-10T08:15:12.989Z,29.06
2018-06-10T08:17:42.060Z,29.06
2018-06-10T08:20:11.061Z,29.18
2018-06-10T08:22:40.069Z,29.22
2018-06-10T08:25:08.999Z,29.27
2018-06-10T08:27:38.028Z,29.08
2018-06-10T08:30:07.114Z,28.83
2018-06-10T08:32:36.132Z,28.72
2018-06-10T08:35:05.225Z,28.98
2018-06-10T08:37:34.369Z,29.05
2018-06-10T08:40:03.441Z,29.18
2018-06-10T08:42:32.403Z,29.64
2018-06-10T08:45:01.328Z,29.99
2018-06-10T08:47:30.324Z,30.27
2018-06-10T08:49:59.287Z,30.47
2018-06-10T08:52:28.405Z,30.60
2018-06-10T08:54:57.400Z,30.46
2018-06-10T08:57:26.451Z,30.55
2018-06-10T08:59:55.657Z,30.55
2018-06-10T09:02:24.651Z,30.47
2018-06-10T09:04:53.708Z,30.76
2018-06-10T09:07:22.680Z,30.67
2018-06-10T09:09:51.622Z,30.07
2018-06-10T09:12:20.548Z,29.56
2018-06-10T09:14:49.586Z,29.55
2018-06-10T09:17:18.632Z,29.82
2018-06-10T09:19:47.673Z,30.31
2018-06-10T09:22:16.707Z,30.94
2018-06-10T09:24:45.632Z,31.27
2018-06-10T09:27:14.621Z,31.51
2018-06-10T09:29:43.714Z,32.01
2018-06-10T09:32:12.691Z,32.59
2018-06-10T09:34:41.628Z,33.01
2018-06-10T09:37:10.645Z,33.10
2018-06-10T09:39:39.685Z,33.22
2018-06-10T09:42:08.814Z,33.28
2018-06-10T09:44:37.773Z,33.34
2018-06-10T09:47:06.826Z,33.23
2018-06-10T09:49:35.873Z,33.62
2018-06-10T09:52:04.869Z,33.63
2018-06-10T09:54:33.967Z,33.29
2018-06-10T09:57:02.953Z,32.97
2018-06-10T09:59:31.907Z,32.20
2018-06-10T10:02:00.905Z,31.76
2018-06-10T10:04:29.895Z,31.99
2018-06-10T10:06:58.984Z,32.95
2018-06-10T10:09:27.940Z,33.28
2018-06-10T10:11:56.952Z,33.39
2018-06-10T10:14:26.015Z,33.94
2018-06-10T10:16:55.001Z,34.74
2018-06-10T10:19:24.064Z,34.67
2018-06-10T10:21:53.168Z,34.75
2018-06-10T10:24:22.103Z,34.90
2018-06-10T10:26:51.168Z,35.05
2018-06-10T10:29:20.119Z,35.01
2018-06-10T10:31:49.155Z,34.87
2018-06-10T10:34:18.132Z,34.58
2018-06-10T10:36:47.153Z,34.81
2018-06-10T10:39:16.250Z,34.50
2018-06-10T10:41:45.275Z,34.27
2018-06-10T10:44:14.337Z,33.79
2018-06-10T10:46:43.418Z,33.55
2018-06-10T10:49:12.400Z,32.88
2018-06-10T10:51:41.357Z,32.55
2018-06-10T10:54:10.315Z,32.24
2018-06-10T10:56:39.389Z,31.65
2018-06-10T10:59:08.401Z,31.80
2018-06-10T11:01:37.374Z,32.45
2018-06-10T11:04:06.355Z,33.30
2018-06-10T11:06:35.396Z,34.13
2018-06-10T11:09:05.845Z,34.59
2018-06-10T11:11:34.834Z,34.54
2018-06-10T11:14:03.868Z,34.50
2018-06-10T11:16:32.825Z,34.17
2018-06-10T11:19:01.857Z,33.97
2018-06-10T11:21:30.868Z,33.66
2018-06-10T11:23:59.896Z,33.32
2018-06-10T11:26:28.853Z,32.94
2018-06-10T11:28:57.937Z,33.03
2018-06-10T11:31:27.030Z,33.53
2018-06-10T11:33:56.122Z,33.38
2018-06-10T11:36:25.091Z,32.73
2018-06-10T11:38:54.093Z,33.39
2018-06-10T11:41:23.114Z,33.74
2018-06-10T11:43:52.099Z,34.96
2018-06-10T11:46:21.229Z,35.73
2018-06-10T11:48:50.246Z,36.88
2018-06-10T11:51:19.297Z,37.33
2018-06-10T11:53:48.336Z,36.67
2018-06-10T11:56:17.332Z,37.01
2018-06-10T11:58:46.408Z,37.66
2018-06-10T12:01:15.372Z,38.27
2018-06-10T12:03:44.381Z,37.71
2018-06-10T12:06:13.438Z,37.02
2018-06-10T12:08:42.472Z,37.66
2018-06-10T12:11:11.499Z,37.24
2018-06-10T12:13:40.568Z,37.97
2018-06-10T12:16:09.520Z,38.62
2018-06-10T12:18:38.633Z,38.86
2018-06-10T12:21:07.656Z,38.10
2018-06-10T12:23:36.675Z,38.23
2018-06-10T12:26:05.652Z,38.47
2018-06-10T12:28:34.714Z,38.40
2018-06-10T12:31:03.687Z,39.04
2018-06-10T12:33:32.635Z,38.63
2018-06-10T12:36:01.810Z,38.40
2018-06-10T12:38:31.541Z,38.59
2018-06-10T12:41:00.496Z,38.71
2018-06-10T12:43:29.521Z,39.12
2018-06-10T12:45:58.576Z,38.59
2018-06-10T12:48:27.588Z,39.12
2018-06-10T12:50:56.547Z,39.50
2018-06-10T12:53:25.614Z,38.76
2018-06-10T12:55:56.781Z,37.77
2018-06-10T12:58:25.736Z,38.30
2018-06-10T13:00:54.756Z,38.85
2018-06-10T13:03:23.696Z,38.44
2018-06-10T13:05:52.773Z,39.19
2018-06-10T13:08:21.781Z,39.84
2018-06-10T13:10:50.773Z,39.94
2018-06-10T13:13:19.897Z,39.19
2018-06-10T13:15:48.916Z,38.65
2018-06-10T13:18:17.921Z,37.67
2018-06-10T13:20:46.985Z,36.28
2018-06-10T13:23:15.952Z,35.42
2018-06-10T13:25:45.047Z,34.85
2018-06-10T13:28:14.048Z,34.68
2018-06-10T13:30:43.069Z,34.70
2018-06-10T13:33:12.144Z,35.03
2018-06-10T13:35:41.109Z,34.48
2018-06-10T13:38:10.116Z,33.85
2018-06-10T13:40:39.127Z,33.40
2018-06-10T13:43:08.111Z,32.88
2018-06-10T13:45:37.149Z,32.74
2018-06-10T13:48:06.141Z,32.71
2018-06-10T13:50:35.277Z,32.75
2018-06-10T13:53:04.376Z,32.73
2018-06-10T13:55:33.395Z,32.64
2018-06-10T13:58:02.420Z,32.28
2018-06-10T14:00:31.465Z,31.86
2018-06-10T14:03:00.532Z,31.72
2018-06-10T14:05:29.492Z,31.49
2018-06-10T14:07:58.485Z,31.39
2018-06-10T14:10:27.551Z,31.34
2018-06-10T14:12:56.609Z,31.44
2018-06-10T14:15:25.681Z,31.59
2018-06-10T14:17:54.698Z,31.49
2018-06-10T14:20:23.776Z,31.29
2018-06-10T14:22:52.738Z,31.14
2018-06-10T14:25:21.760Z,31.12
2018-06-10T14:27:50.840Z,30.99
2018-06-10T14:30:19.902Z,30.70
2018-06-10T14:32:48.885Z,30.90
2018-06-10T14:35:17.849Z,30.93
2018-06-10T14:37:46.842Z,30.96
2018-06-10T14:40:15.843Z,31.00
2018-06-10T14:42:44.790Z,30.99
2018-06-10T14:45:13.765Z,30.92
2018-06-10T14:47:42.722Z,30.79
2018-06-10T14:50:11.748Z,30.77
2018-06-10T14:52:40.772Z,30.65
2018-06-10T14:55:09.779Z,30.59
2018-06-10T14:57:38.765Z,30.64
2018-06-10T15:00:07.780Z,30.63
2018-06-10T15:02:36.736Z,30.60
2018-06-10T15:05:05.865Z,30.56
2018-06-10T15:07:34.840Z,30.46
2018-06-10T15:10:03.872Z,30.40
2018-06-10T15:12:32.981Z,30.41
2018-06-10T15:15:01.958Z,30.43
2018-06-10T15:17:30.979Z,30.45
2018-06-10T15:20:00.061Z,30.39
2018-06-10T15:22:29.044Z,30.37
2018-06-10T15:24:58.071Z,30.46
2018-06-10T15:27:27.024Z,30.58
2018-06-10T15:29:56.036Z,30.64
2018-06-10T15:32:25.009Z,30.74
2018-06-10T15:34:53.997Z,30.67
2018-06-10T15:37:23.095Z,30.72
2018-06-10T15:39:52.187Z,30.56
2018-06-10T15:42:21.393Z,30.56
2018-06-10T15:44:50.433Z,30.64
2018-06-10T15:47:19.408Z,30.57
2018-06-10T15:49:48.425Z,30.70
2018-06-10T15:52:17.412Z,30.74
2018-06-10T15:54:46.414Z,30.60
2018-06-10T15:57:15.434Z,30.61
2018-06-10T15:59:44.409Z,30.63
2018-06-10T16:02:13.384Z,30.64
2018-06-10T16:04:42.401Z,30.75
2018-06-10T16:07:11.504Z,30.68
2018-06-10T16:09:40.558Z,30.54
2018-06-10T16:12:09.578Z,30.59
2018-06-10T16:14:38.656Z,30.63
2018-06-10T16:17:07.813Z,30.59
2018-06-10T16:19:36.849Z,30.43
2018-06-10T16:22:05.779Z,30.38
2018-06-10T16:24:34.732Z,30.37
2018-06-10T16:27:03.676Z,30.42
2018-06-10T16:29:32.673Z,30.42
2018-06-10T16:32:01.781Z,30.32
2018-06-10T16:34:30.817Z,30.19
2018-06-10T16:36:59.858Z,30.03
2018-06-10T16:39:28.884Z,29.86
2018-06-10T16:41:57.824Z,29.70
2018-06-10T16:44:26.890Z,29.58
2018-06-10T16:46:55.875Z,29.44
2018-06-10T16:49:24.860Z,29.29
2018-06-10T16:51:53.818Z,29.20
2018-06-10T16:54:22.776Z,29.10
2018-06-10T16:56:51.901Z,28.96
2018-06-10T16:59:20.874Z,28.84
2018-06-10T17:01:49.912Z,28.73
2018-06-10T17:04:18.858Z,28.64
2018-06-10T17:06:47.881Z,28.55
2018-06-10T17:09:16.881Z,28.43
2018-06-10T17:11:45.946Z,28.37
2018-06-10T17:14:14.916Z,28.23
2018-06-10T17:16:43.954Z,28.10
2018-06-10T17:19:12.916Z,27.98
2018-06-10T17:21:41.933Z,27.87
2018-06-10T17:24:11.009Z,27.72
2018-06-10T17:26:39.965Z,27.60
2018-06-10T17:29:08.940Z,27.43
2018-06-10T17:31:37.953Z,27.30
2018-06-10T17:34:06.989Z,27.15
2018-06-10T17:36:35.955Z,27.01
2018-06-10T17:39:06.848Z,26.89
2018-06-10T17:41:35.828Z,26.79
2018-06-10T17:44:05.007Z,26.68
2018-06-10T17:46:34.080Z,26.59
2018-06-10T17:49:03.221Z,26.57
2018-06-10T17:51:32.180Z,26.52
2018-06-10T17:54:01.261Z,26.47
2018-06-10T17:56:30.291Z,26.40
2018-06-10T17:58:59.357Z,26.34
2018-06-10T18:01:28.409Z,26.23
2018-06-10T18:05:00.642Z,26.10
2018-06-10T18:07:29.629Z,25.87
2018-06-10T18:09:58.723Z,25.74
2018-06-10T18:12:27.701Z,25.58
2018-06-10T18:14:56.722Z,25.45
2018-06-10T18:17:25.890Z,25.28
2018-06-10T18:19:54.848Z,25.18
2018-06-10T18:22:23.829Z,25.12
2018-06-10T18:24:52.824Z,25.07
2018-06-10T18:27:21.772Z,25.00
2018-06-10T18:29:50.846Z,24.96
2018-06-10T18:32:19.876Z,24.93
2018-06-10T18:34:48.897Z,24.86
2018-06-10T18:37:17.926Z,24.84
2018-06-10T18:39:46.953Z,24.77
2018-06-10T18:42:16.040Z,24.72
2018-06-10T18:44:45.059Z,24.42
2018-06-10T18:47:14.177Z,24.60
2018-06-10T18:49:43.225Z,24.54
2018-06-10T18:52:12.256Z,24.46
2018-06-10T18:54:41.279Z,24.40
2018-06-10T18:57:10.244Z,24.34
2018-06-10T18:59:39.244Z,24.29
2018-06-10T19:02:08.265Z,24.28
2018-06-10T19:04:37.224Z,24.24
2018-06-10T19:07:06.280Z,24.23
2018-06-10T19:09:35.361Z,24.21
2018-06-10T19:12:04.335Z,24.18
2018-06-10T19:14:33.372Z,24.13
2018-06-10T19:17:02.445Z,24.07
2018-06-10T19:19:31.488Z,24.01
2018-06-10T19:22:00.520Z,23.96
2018-06-10T19:24:29.564Z,23.90
2018-06-10T19:26:58.602Z,23.89
2018-06-10T19:29:27.599Z,23.90
2018-06-10T19:31:56.677Z,23.87
2018-06-10T19:34:25.655Z,23.85
2018-06-10T19:36:54.644Z,23.84
2018-06-10T19:39:23.596Z,23.79
2018-06-10T19:41:52.564Z,23.74
2018-06-10T19:44:21.591Z,23.70
2018-06-10T19:46:50.556Z,23.62
2018-06-10T19:49:19.624Z,23.52
2018-06-10T19:51:48.662Z,23.50
2018-06-10T19:54:17.790Z,23.46
2018-06-10T19:56:46.824Z,23.44
2018-06-10T19:59:15.832Z,23.37
2018-06-10T20:01:44.797Z,23.29
2018-06-10T20:04:13.900Z,23.23
2018-06-10T20:06:42.857Z,23.15
2018-06-10T20:09:11.981Z,23.10
2018-06-10T20:11:40.992Z,23.07
2018-06-10T20:14:10.001Z,23.08
2018-06-10T20:16:38.961Z,22.99
2018-06-10T20:19:07.931Z,22.91
2018-06-10T20:21:36.998Z,22.79
2018-06-10T20:24:06.001Z,22.72
2018-06-10T20:26:35.014Z,22.64
2018-06-10T20:29:03.987Z,22.56
2018-06-10T20:31:33.096Z,22.47
2018-06-10T20:34:02.332Z,22.36
2018-06-10T20:36:31.368Z,22.31
2018-06-10T20:39:00.316Z,22.26
2018-06-10T20:41:29.333Z,22.23
2018-06-10T20:43:58.324Z,22.16
2018-06-10T20:46:27.331Z,22.15
2018-06-10T20:48:56.287Z,22.14
2018-06-10T20:51:25.238Z,22.12
2018-06-10T20:53:54.188Z,22.06
2018-06-10T20:56:23.133Z,22.10
2018-06-10T20:58:52.184Z,22.10
2018-06-10T21:01:21.189Z,22.07
2018-06-10T21:03:50.131Z,22.03
2018-06-10T21:06:19.088Z,21.98
2018-06-10T21:08:48.037Z,21.92
2018-06-10T21:11:17.028Z,21.90
2018-06-10T21:13:46.044Z,21.84
2018-06-10T21:16:15.101Z,21.83
2018-06-10T21:18:44.058Z,21.80
2018-06-10T21:21:12.996Z,21.77
2018-06-10T21:23:41.989Z,21.74
2018-06-10T21:26:11.034Z,21.70
2018-06-10T21:28:40.061Z,21.68
2018-06-10T21:31:09.085Z,21.69
2018-06-10T21:33:38.039Z,21.64
2018-06-10T21:36:07.060Z,21.62
2018-06-10T21:38:36.057Z,21.66
2018-06-10T21:41:04.995Z,21.64
2018-06-10T21:43:33.940Z,21.63
2018-06-10T21:46:02.952Z,21.59
2018-06-10T21:48:32.068Z,21.56
2018-06-10T21:51:01.008Z,21.51
2018-06-10T21:53:29.951Z,21.48
2018-06-10T21:55:59.061Z,21.43
2018-06-10T21:58:28.020Z,21.40
2018-06-10T22:00:58.501Z,21.36
2018-06-10T22:03:27.440Z,21.42
2018-06-10T22:05:56.396Z,21.49
2018-06-10T22:08:25.409Z,21.56
2018-06-10T22:10:54.364Z,21.61
2018-06-10T22:13:23.406Z,21.70
2018-06-10T22:15:52.368Z,21.71
2018-06-10T22:18:21.380Z,21.72
2018-06-10T22:20:50.442Z,21.72
2018-06-10T22:23:19.436Z,21.69
2018-06-10T22:25:48.492Z,21.67
2018-06-10T22:28:17.502Z,21.66
2018-06-10T22:30:46.506Z,21.71
2018-06-10T22:33:15.460Z,21.70
2018-06-10T22:35:44.513Z,21.70
2018-06-10T22:38:13.532Z,21.71
2018-06-10T22:40:42.510Z,21.62
2018-06-10T22:43:11.480Z,21.49
2018-06-10T22:45:40.423Z,21.47
2018-06-10T22:48:09.360Z,21.47
2018-06-10T22:50:38.534Z,21.56
2018-06-10T22:53:20.357Z,21.56
2018-06-10T22:55:49.421Z,21.51
2018-06-10T23:01:01.728Z,21.47
2018-06-10T23:03:30.668Z,21.42
2018-06-10T23:05:59.655Z,21.36
2018-06-10T23:08:28.724Z,21.31
2018-06-10T23:10:57.724Z,21.27
2018-06-10T23:13:26.784Z,21.23
2018-06-10T23:15:55.751Z,21.14
2018-06-10T23:18:24.745Z,21.08
2018-06-10T23:20:53.720Z,21.01
2018-06-10T23:23:22.656Z,20.96
2018-06-10T23:25:51.793Z,20.89
2018-06-10T23:28:20.732Z,20.84
2018-06-10T23:30:49.717Z,20.70
2018-06-10T23:33:18.668Z,20.63
2018-06-10T23:35:47.612Z,20.57
2018-06-10T23:38:16.721Z,20.44
2018-06-10T23:40:45.731Z,20.34
2018-06-10T23:43:14.674Z,20.23
2018-06-10T23:45:43.620Z,20.17
2018-06-10T23:48:12.618Z,20.10
2018-06-10T23:50:41.668Z,20.03
2018-06-10T23:53:10.725Z,19.97
2018-06-10T23:55:39.736Z,19.95
2018-06-10T23:58:08.764Z,19.92
